createdAt,value
2022-12-01T00:00:33.346Z,58.42
2022-12-01T00:03:02.200Z,65.65
2022-12-01T00:05:30.729Z,65.68
2022-12-01T00:10:31.713Z,61.70
2022-12-01T00:13:07.296Z,61.83
2022-12-01T00:15:38.150Z,62.83
2022-12-01T00:18:06.026Z,61.83
2022-12-01T00:20:35.455Z,63.20
2022-12-01T00:23:03.188Z,61.85
2022-12-01T00:25:32.172Z,59.72
2022-12-01T00:27:59.733Z,59.55
2022-12-01T00:30:33.696Z,60.83
2022-12-01T00:33:01.251Z,67.60
2022-12-01T00:35:29.233Z,59.60
2022-12-01T00:37:56.888Z,60.53
2022-12-01T00:40:24.192Z,61.72
2022-12-01T00:42:51.606Z,61.42
2022-12-01T00:45:19.419Z,60.20
2022-12-01T00:53:09.961Z,61.65
2022-12-01T01:00:39.183Z,61.33
2022-12-01T01:05:53.714Z,60.72
2022-12-01T01:11:39.441Z,67.15
2022-12-01T01:14:08.810Z,59.72
2022-12-01T01:16:37.336Z,63.17
2022-12-01T01:21:58.468Z,60.97
2022-12-01T01:24:33.008Z,66.47
2022-12-01T01:29:42.846Z,65.25
2022-12-01T01:32:10.214Z,63.08
2022-12-01T01:34:38.689Z,60.75
2022-12-01T01:39:35.971Z,61.20
2022-12-01T01:42:03.856Z,67.43
2022-12-01T01:44:50.104Z,59.65
2022-12-01T01:47:27.533Z,60.25
2022-12-01T01:50:00.176Z,65.20
2022-12-01T01:52:30.012Z,62.83
2022-12-01T01:54:58.978Z,64.35
2022-12-01T01:57:33.748Z,66.03
2022-12-01T02:00:22.068Z,67.80
2022-12-01T02:02:54.261Z,62.90
2022-12-01T02:05:33.861Z,62.63
2022-12-01T02:08:11.235Z,65.50
2022-12-01T02:11:07.753Z,65.88
2022-12-01T02:17:41.772Z,64.47
2022-12-01T02:20:42.547Z,61.78
2022-12-01T02:23:24.343Z,64.95
2022-12-01T02:26:18.648Z,68.70
2022-12-01T02:29:16.361Z,66.53
2022-12-01T02:32:28.853Z,62.40
2022-12-01T02:35:13.452Z,62.40
2022-12-01T02:38:25.637Z,61.40
2022-12-01T02:41:09.313Z,65.35
2022-12-01T02:44:09.930Z,62.08
2022-12-01T02:46:47.411Z,64.13
2022-12-01T02:49:25.872Z,61.65
2022-12-01T02:51:56.969Z,62.17
2022-12-01T02:57:17.026Z,65.95
2022-12-01T02:59:50.851Z,64.60
2022-12-01T03:02:44.995Z,67.53
2022-12-01T03:11:14.388Z,63.25
2022-12-01T03:19:49.989Z,64.07
2022-12-01T03:22:54.012Z,61.87
2022-12-01T03:25:26.608Z,62.55
2022-12-01T03:28:20.142Z,64.07
2022-12-01T03:30:47.583Z,60.95
2022-12-01T03:33:36.257Z,64.50
2022-12-01T03:36:30.854Z,60.65
2022-12-01T03:39:05.901Z,62.72
2022-12-01T03:41:49.726Z,66.07
2022-12-01T03:44:23.623Z,65.77
2022-12-01T03:47:34.418Z,65.00
2022-12-01T03:50:02.028Z,62.33
2022-12-01T03:53:09.545Z,63.00
2022-12-01T03:55:43.438Z,60.90
2022-12-01T03:58:37.310Z,60.92
2022-12-01T04:01:05.790Z,60.58
2022-12-01T04:03:35.215Z,62.00
2022-12-01T04:06:02.702Z,61.45
2022-12-01T04:08:30.980Z,59.42
2022-12-01T04:10:58.587Z,56.55
2022-12-01T04:13:27.167Z,59.30
2022-12-01T04:16:14.374Z,59.17
2022-12-01T04:18:42.289Z,63.80
2022-12-01T04:21:11.459Z,64.15
2022-12-01T04:23:58.376Z,61.38
2022-12-01T04:26:34.816Z,62.35
2022-12-01T04:31:50.911Z,59.63
2022-12-01T04:34:23.142Z,61.72
2022-12-01T04:39:19.910Z,56.17
2022-12-01T04:44:22.781Z,64.78
2022-12-01T04:46:56.082Z,59.30
2022-12-01T04:49:35.240Z,56.63
2022-12-01T05:00:20.919Z,55.65
2022-12-01T05:02:48.332Z,57.20
2022-12-01T05:05:17.827Z,62.50
2022-12-01T05:10:39.759Z,63.80
2022-12-01T05:13:07.280Z,56.13
2022-12-01T05:15:34.461Z,57.50
2022-12-01T05:18:01.716Z,57.50
2022-12-01T05:20:49.308Z,59.95
2022-12-01T05:23:17.214Z,58.00
2022-12-01T05:25:44.576Z,55.13
2022-12-01T05:28:11.840Z,60.97
2022-12-01T05:30:41.240Z,56.08
2022-12-01T05:33:08.654Z,60.00
2022-12-01T05:35:38.683Z,60.10
2022-12-01T05:38:08.175Z,59.65
2022-12-01T05:40:39.150Z,58.65
2022-12-01T05:43:08.659Z,60.47
2022-12-01T05:45:37.110Z,59.78
2022-12-01T05:48:09.119Z,61.03
2022-12-01T05:50:42.853Z,62.15
2022-12-01T05:53:14.191Z,63.63
2022-12-01T05:58:17.568Z,57.70
2022-12-01T06:00:46.498Z,59.90
2022-12-01T06:03:14.915Z,60.70
2022-12-01T06:05:54.352Z,57.55
2022-12-01T06:08:22.191Z,57.25
2022-12-01T06:10:50.186Z,58.38
2022-12-01T06:13:19.346Z,62.75
2022-12-01T06:15:46.809Z,57.83
2022-12-01T06:18:14.996Z,55.08
2022-12-01T06:20:46.905Z,57.95
2022-12-01T06:23:26.281Z,55.65
2022-12-01T06:25:56.666Z,56.25
2022-12-01T06:28:24.077Z,57.90
2022-12-01T06:30:51.350Z,55.63
2022-12-01T06:33:18.515Z,56.72
2022-12-01T06:35:46.246Z,55.35
2022-12-01T06:38:14.130Z,62.85
2022-12-01T06:40:43.989Z,61.10
2022-12-01T06:43:11.468Z,58.53
2022-12-01T06:45:38.817Z,57.42
2022-12-01T06:48:07.115Z,60.83
2022-12-01T06:50:35.950Z,61.25
2022-12-01T06:53:03.858Z,59.83
2022-12-01T06:55:31.216Z,61.13
2022-12-01T07:03:25.242Z,60.20
2022-12-01T07:06:21.052Z,59.13
2022-12-01T07:17:11.748Z,57.17
2022-12-01T07:19:44.302Z,61.38
2022-12-01T07:30:37.615Z,55.75
2022-12-01T07:33:15.466Z,57.00
2022-12-01T07:47:13.934Z,61.40
2022-12-01T08:00:55.286Z,60.83
2022-12-01T09:01:30.298Z,57.40
2022-12-01T09:06:46.516Z,62.30
2022-12-01T09:09:21.964Z,62.00
2022-12-01T09:11:53.322Z,61.38
2022-12-01T09:30:56.699Z,58.75
2022-12-01T09:33:24.504Z,70.05
2022-12-01T09:35:51.987Z,60.28
2022-12-01T09:38:19.269Z,62.75
2022-12-01T10:06:28.033Z,57.90
2022-12-01T10:15:42.509Z,62.42
2022-12-01T10:22:06.014Z,59.85
2022-12-01T10:24:49.092Z,59.15
2022-12-01T10:27:57.854Z,55.97
2022-12-01T10:33:25.927Z,60.90
2022-12-01T10:35:54.456Z,55.85
2022-12-01T10:38:29.863Z,58.50
2022-12-01T10:43:44.983Z,60.95
2022-12-01T10:49:16.297Z,60.42
2022-12-01T10:52:01.938Z,62.33
2022-12-01T10:54:40.477Z,65.15
2022-12-01T10:57:18.000Z,62.40
2022-12-01T10:59:57.495Z,60.85
2022-12-01T11:10:50.093Z,54.63
2022-12-01T11:13:39.251Z,57.45
2022-12-01T11:16:12.630Z,56.47
2022-12-01T11:18:40.765Z,55.23
2022-12-01T11:21:31.825Z,53.60
2022-12-01T11:23:59.238Z,53.85
2022-12-01T11:26:31.723Z,59.70
2022-12-01T11:29:36.028Z,57.00
2022-12-01T11:32:23.566Z,55.97
2022-12-01T11:34:55.173Z,57.00
2022-12-01T11:37:27.887Z,54.47
2022-12-01T11:39:55.386Z,53.35
2022-12-01T11:42:29.318Z,53.67
2022-12-01T11:45:07.524Z,56.40
2022-12-01T11:47:34.758Z,55.80
2022-12-01T11:50:25.396Z,60.13
2022-12-01T11:53:01.339Z,52.47
2022-12-01T11:55:31.406Z,56.72
2022-12-01T11:58:03.478Z,62.20
2022-12-01T12:00:47.506Z,52.67
2022-12-01T12:03:29.551Z,54.15
2022-12-01T12:09:33.154Z,55.97
2022-12-01T12:12:57.949Z,55.65
2022-12-01T12:15:55.517Z,54.22
2022-12-01T12:18:54.169Z,50.85
2022-12-01T12:21:49.807Z,57.05
2022-12-01T12:25:06.166Z,55.13
2022-12-01T12:27:33.296Z,54.70
2022-12-01T12:30:15.360Z,50.97
2022-12-01T12:33:09.993Z,55.78
2022-12-01T12:35:46.294Z,57.67
2022-12-01T12:38:44.319Z,54.75
2022-12-01T12:41:44.158Z,56.70
2022-12-01T12:44:45.158Z,52.58
2022-12-01T12:48:01.236Z,50.25
2022-12-01T12:50:59.566Z,54.35
2022-12-01T12:53:37.013Z,55.65
2022-12-01T12:56:08.634Z,57.45
2022-12-01T12:58:49.938Z,53.17
2022-12-01T13:01:34.001Z,53.00
2022-12-01T13:04:23.659Z,51.67
2022-12-01T13:07:08.126Z,52.63
2022-12-01T13:09:49.391Z,51.72
2022-12-01T13:12:31.660Z,57.60
2022-12-01T13:15:21.312Z,53.95
2022-12-01T13:18:13.746Z,55.78
2022-12-01T13:20:41.687Z,47.15
2022-12-01T13:23:17.193Z,46.97
2022-12-01T13:25:49.408Z,50.55
2022-12-01T13:28:26.814Z,47.00
2022-12-01T13:31:11.241Z,53.63
2022-12-01T13:33:54.705Z,48.40
2022-12-01T13:36:45.624Z,49.45
2022-12-01T13:39:41.414Z,47.90
2022-12-01T13:42:24.575Z,50.47
2022-12-01T13:44:58.774Z,53.42
2022-12-01T13:47:49.682Z,48.60
2022-12-01T13:50:46.232Z,51.63
2022-12-01T13:53:19.487Z,47.78
2022-12-01T13:56:08.522Z,45.17
2022-12-01T13:58:35.607Z,44.13
2022-12-01T14:01:45.875Z,46.97
2022-12-01T14:04:15.906Z,48.33
2022-12-01T14:06:49.814Z,45.95
2022-12-01T14:09:39.719Z,46.45
2022-12-01T14:12:22.993Z,46.78
2022-12-01T14:15:22.986Z,48.33
2022-12-01T14:18:07.898Z,51.20
2022-12-01T14:20:45.799Z,48.15
2022-12-01T14:23:33.300Z,52.42
2022-12-01T14:26:25.258Z,47.75
2022-12-01T14:28:55.859Z,56.20
2022-12-01T14:31:33.821Z,51.08
2022-12-01T14:34:24.232Z,48.90
2022-12-01T14:37:06.069Z,49.75
2022-12-01T14:39:59.175Z,51.92
2022-12-01T14:42:55.442Z,54.30
2022-12-01T14:45:35.885Z,55.15
2022-12-01T14:48:09.635Z,53.70
2022-12-01T14:50:49.233Z,55.58
2022-12-01T14:53:22.783Z,53.53
2022-12-01T14:56:00.140Z,59.25
2022-12-01T14:58:35.115Z,52.38
2022-12-01T15:04:03.870Z,54.85
2022-12-01T15:06:35.421Z,53.28
2022-12-01T15:17:40.264Z,50.60
2022-12-01T15:28:46.715Z,56.95
2022-12-01T15:31:21.608Z,51.63
2022-12-01T15:33:53.060Z,54.33
2022-12-01T15:42:04.484Z,52.17
2022-12-01T15:44:37.008Z,59.58
2022-12-01T15:47:56.264Z,56.35
2022-12-01T15:50:34.461Z,53.75
2022-12-01T15:53:14.807Z,57.42
2022-12-01T15:55:42.087Z,59.42
2022-12-01T15:58:22.808Z,58.28
2022-12-01T16:01:02.411Z,56.15
2022-12-01T16:03:30.584Z,56.33
2022-12-01T16:05:58.693Z,57.13
2022-12-01T16:08:28.593Z,49.78
2022-12-01T16:11:25.787Z,53.65
2022-12-01T16:14:06.980Z,52.58
2022-12-01T16:16:45.548Z,52.15
2022-12-01T16:19:16.399Z,50.94
2022-12-01T16:22:01.443Z,55.63
2022-12-01T16:24:35.272Z,45.30
2022-12-01T16:27:21.946Z,47.03
2022-12-01T16:30:06.360Z,48.90
2022-12-01T16:32:33.892Z,48.83
2022-12-01T16:35:08.854Z,46.95
2022-12-01T16:37:42.661Z,47.58
2022-12-01T16:40:13.773Z,45.97
2022-12-01T16:42:41.640Z,45.47
2022-12-01T16:45:16.072Z,48.20
2022-12-01T16:47:46.031Z,45.40
2022-12-01T16:50:22.022Z,48.53
2022-12-01T16:52:49.619Z,46.53
2022-12-01T16:55:42.893Z,47.55
2022-12-01T16:58:12.460Z,47.22
2022-12-01T17:14:29.874Z,49.45
